Pagrindinis puslapis
METAR-TAF:

METAR-TAF

Oro uostai :

Mosjøen, Norvegija

platuma: 65-48N, ilguma: 013-08E, Aukštis: 70 m

Dabartinis oras

Ataskaita buvo paskelbta 34 minutes, ne 19:50 UTC
Vėjas 5 kt iš Šiaurės/Šiaurės Vakarų
Temperatūra 10°C
Drėgmė 82%
Slėgis 1011 hPa
Matomumas 10 km arba daugiau
nėra debesų žemiau 1500 m ir nėra kamuolinių lietaus debesų

METAR: ENMS 221950Z 33005KT CAVOK 10/07 Q1011 RMK WIND 412FT VRB03KT

Laikas: 22:24 (20:24 UTC)


TAF: trūkstamas

Orai ataskaitas ir orų prognozės (METAR, TAF).

turimą stotys yra geltonos ir raudonos taškus žemėlapyje.

Perkelti pele per norėdami pamatyti stoties vardą.

Tada spustelėkite, norėdami matyti oro stebėjimo ir prognozės.

Norėdami pakeisti žemėlapį: spustelėkite ant žalios mygtukų su juodo kryžiaus žemyn,; žalią mygtuką su brūkšneliu, jei norite nutolinti; arba žalių rodyklių gretimoms žemėlapius.


METAR-TAF: